createdAt,value
2023-01-17T00:02:23.643Z,90.95
2023-01-17T00:05:10.273Z,90.93
2023-01-17T00:07:56.919Z,90.87
2023-01-17T00:10:27.659Z,90.89
2023-01-17T00:13:00.296Z,90.92
2023-01-17T00:15:30.873Z,90.93
2023-01-17T00:17:59.568Z,90.92
2023-01-17T00:20:48.506Z,91.00
2023-01-17T00:23:44.744Z,91.04
2023-01-17T00:26:16.866Z,91.06
2023-01-17T00:28:46.719Z,91.09
2023-01-17T00:31:15.880Z,91.08
2023-01-17T00:33:43.808Z,91.08
2023-01-17T00:36:12.275Z,91.16
2023-01-17T00:38:40.840Z,91.21
2023-01-17T00:41:11.689Z,91.23
2023-01-17T00:43:58.557Z,91.25
2023-01-17T00:46:45.412Z,91.44
2023-01-17T00:49:32.031Z,91.57
2023-01-17T00:52:19.743Z,91.60
2023-01-17T00:55:06.155Z,91.57
2023-01-17T00:57:52.386Z,91.55
2023-01-17T01:00:39.254Z,91.58
2023-01-17T01:03:30.335Z,91.62
2023-01-17T01:06:16.677Z,91.74
2023-01-17T01:09:03.216Z,91.99
2023-01-17T01:11:49.535Z,92.12
2023-01-17T01:14:36.453Z,92.16
2023-01-17T01:17:22.757Z,92.27
2023-01-17T01:20:08.866Z,92.33
2023-01-17T01:22:55.348Z,92.34
2023-01-17T01:25:41.811Z,92.36
2023-01-17T01:28:33.166Z,92.38
2023-01-17T01:31:20.788Z,92.40
2023-01-17T01:33:50.983Z,92.43
2023-01-17T01:36:20.311Z,92.40
2023-01-17T01:38:48.290Z,92.40
2023-01-17T01:41:16.126Z,92.38
2023-01-17T01:43:55.002Z,92.37
2023-01-17T01:46:37.348Z,92.33
2023-01-17T01:49:24.869Z,92.33
2023-01-17T01:51:55.850Z,92.31
2023-01-17T01:54:28.358Z,92.28
2023-01-17T01:56:59.197Z,92.27
2023-01-17T01:59:27.729Z,92.19
2023-01-17T02:01:58.260Z,92.08
2023-01-17T02:04:28.519Z,92.04
2023-01-17T02:07:06.693Z,92.02
2023-01-17T02:09:34.676Z,92.01
2023-01-17T02:12:04.440Z,92.01
2023-01-17T02:14:32.325Z,91.95
2023-01-17T02:17:16.739Z,91.86
2023-01-17T02:20:03.705Z,91.81
2023-01-17T02:22:51.481Z,91.78
2023-01-17T02:25:19.305Z,91.80
2023-01-17T02:27:56.071Z,91.83
2023-01-17T02:30:37.454Z,91.83
2023-01-17T02:33:08.608Z,91.86
2023-01-17T02:35:56.264Z,91.87
2023-01-17T02:39:04.539Z,91.84
2023-01-17T02:41:44.789Z,91.81
2023-01-17T02:44:19.902Z,91.82
2023-01-17T02:46:59.309Z,91.80
2023-01-17T02:49:31.851Z,91.74
2023-01-17T02:52:23.412Z,91.66
2023-01-17T02:54:57.260Z,91.59
2023-01-17T02:57:46.477Z,91.48
2023-01-17T03:00:29.615Z,91.46
2023-01-17T03:03:16.096Z,91.41
2023-01-17T03:06:02.300Z,91.34
2023-01-17T03:08:31.044Z,91.35
2023-01-17T03:10:59.156Z,91.36
2023-01-17T03:13:27.223Z,91.32
2023-01-17T03:15:55.457Z,91.29
2023-01-17T03:18:24.202Z,91.30
2023-01-17T03:20:52.103Z,91.32
2023-01-17T03:23:20.116Z,91.27
2023-01-17T03:25:48.110Z,91.22
2023-01-17T03:28:15.920Z,91.20
2023-01-17T03:30:43.902Z,91.26
2023-01-17T03:33:11.823Z,91.24
2023-01-17T03:35:39.753Z,91.14
2023-01-17T03:38:07.698Z,91.08
2023-01-17T03:40:35.554Z,91.09
2023-01-17T03:43:03.421Z,91.13
2023-01-17T03:45:31.419Z,91.11
2023-01-17T03:48:00.056Z,91.07
2023-01-17T03:50:28.140Z,91.02
2023-01-17T03:52:56.044Z,90.98
2023-01-17T03:55:24.093Z,91.03
2023-01-17T03:57:52.197Z,91.05
2023-01-17T04:05:05.264Z,90.87
2023-01-17T04:07:33.564Z,90.86
2023-01-17T04:10:01.864Z,90.84
2023-01-17T04:12:29.779Z,90.88
2023-01-17T04:14:57.578Z,90.94
2023-01-17T04:17:25.946Z,90.95
2023-01-17T04:19:53.976Z,90.99
2023-01-17T04:22:21.801Z,91.04
2023-01-17T04:24:49.658Z,91.09
2023-01-17T04:27:17.537Z,91.12
2023-01-17T04:29:46.760Z,91.16
2023-01-17T04:34:37.137Z,91.23
2023-01-17T04:37:04.989Z,91.26
2023-01-17T04:39:33.013Z,91.31
2023-01-17T04:42:00.932Z,91.32
2023-01-17T04:44:28.772Z,91.35
2023-01-17T04:46:56.721Z,91.38
2023-01-17T04:49:24.520Z,91.38
2023-01-17T04:51:52.479Z,91.37
2023-01-17T04:54:20.281Z,91.35
2023-01-17T04:56:48.994Z,91.32
2023-01-17T04:59:16.902Z,91.22
2023-01-17T05:01:44.832Z,91.15
2023-01-17T05:04:12.697Z,91.10
2023-01-17T05:06:40.644Z,91.01
2023-01-17T05:09:08.634Z,90.97
2023-01-17T05:11:36.651Z,90.94
2023-01-17T05:14:04.837Z,90.90
2023-01-17T05:16:40.963Z,90.89
2023-01-17T05:19:08.877Z,90.89
2023-01-17T05:21:37.048Z,90.93
2023-01-17T05:24:54.692Z,91.01
2023-01-17T05:27:22.609Z,91.05
2023-01-17T05:29:50.600Z,91.09
2023-01-17T05:32:18.514Z,91.13
2023-01-17T05:34:46.355Z,91.14
2023-01-17T05:37:14.175Z,91.16
2023-01-17T05:39:42.093Z,91.19
2023-01-17T05:42:09.923Z,91.19
2023-01-17T05:44:38.750Z,91.20
2023-01-17T05:47:06.663Z,91.21
2023-01-17T05:49:34.827Z,91.29
2023-01-17T05:52:02.662Z,91.38
2023-01-17T05:54:30.570Z,91.46
2023-01-17T05:56:58.442Z,91.52
2023-01-17T05:59:36.469Z,91.61
2023-01-17T06:02:05.324Z,91.66
2023-01-17T06:04:33.367Z,91.70
2023-01-17T06:07:01.314Z,91.72
2023-01-17T06:09:29.225Z,91.70
2023-01-17T06:11:57.115Z,91.70
2023-01-17T06:14:25.325Z,91.75
2023-01-17T06:16:53.408Z,91.81
2023-01-17T06:19:21.530Z,91.95
2023-01-17T06:21:49.324Z,91.99
2023-01-17T06:24:17.172Z,92.01
2023-01-17T06:26:45.104Z,92.05
2023-01-17T06:29:13.569Z,92.09
2023-01-17T06:31:41.510Z,92.18
2023-01-17T06:34:09.338Z,92.29
2023-01-17T06:36:37.388Z,92.39
2023-01-17T06:39:05.400Z,92.43
2023-01-17T06:41:33.483Z,92.46
2023-01-17T06:44:01.392Z,92.51
2023-01-17T06:46:29.573Z,92.49
2023-01-17T06:48:57.585Z,92.48
2023-01-17T06:51:25.708Z,92.48
2023-01-17T06:53:53.898Z,92.53
2023-01-17T06:56:21.786Z,92.52
2023-01-17T06:58:52.846Z,92.54
2023-01-17T07:01:20.954Z,92.55
2023-01-17T07:03:49.044Z,92.56
2023-01-17T07:06:17.024Z,92.58
2023-01-17T07:08:45.097Z,92.59
2023-01-17T07:11:13.630Z,92.58
2023-01-17T07:13:41.646Z,92.53
2023-01-17T07:16:09.712Z,92.37
2023-01-17T07:18:40.493Z,92.12
2023-01-17T07:21:15.473Z,91.95
2023-01-17T07:23:43.494Z,91.79
2023-01-17T07:26:11.450Z,91.45
2023-01-17T07:28:39.709Z,90.84
2023-01-17T07:31:08.647Z,90.51
2023-01-17T07:33:36.701Z,90.04
2023-01-17T07:36:07.429Z,89.57
2023-01-17T07:38:35.855Z,89.02
2023-01-17T07:41:03.845Z,88.42
2023-01-17T07:43:31.878Z,88.28
2023-01-17T07:46:02.106Z,87.94
2023-01-17T07:48:30.778Z,87.17
2023-01-17T07:50:58.843Z,86.91
2023-01-17T07:53:29.700Z,86.78
2023-01-17T07:56:02.673Z,86.43
2023-01-17T07:58:31.981Z,85.94
2023-01-17T08:01:08.589Z,85.73
2023-01-17T08:03:40.091Z,85.78
2023-01-17T08:06:20.363Z,85.75
2023-01-17T08:08:48.366Z,85.98
2023-01-17T08:11:16.357Z,86.19
2023-01-17T08:13:44.373Z,86.47
2023-01-17T08:16:13.394Z,86.69
2023-01-17T08:18:41.640Z,86.53
2023-01-17T08:21:16.884Z,86.83
2023-01-17T08:23:52.267Z,86.62
2023-01-17T08:26:22.157Z,86.51
2023-01-17T08:29:00.328Z,86.34
2023-01-17T08:31:30.639Z,85.59
2023-01-17T08:33:58.898Z,85.69
2023-01-17T08:36:28.765Z,85.86
2023-01-17T08:38:57.237Z,85.36
2023-01-17T08:41:27.747Z,85.20
2023-01-17T08:43:55.671Z,85.38
2023-01-17T08:46:24.414Z,84.76
2023-01-17T08:48:58.759Z,84.54
2023-01-17T08:51:27.678Z,84.86
2023-01-17T08:53:56.719Z,85.07
2023-01-17T08:56:26.279Z,84.88
2023-01-17T08:58:54.460Z,84.98
2023-01-17T09:01:22.605Z,85.00
2023-01-17T09:03:51.584Z,85.07
2023-01-17T09:06:19.836Z,85.02
2023-01-17T09:09:07.013Z,84.80
2023-01-17T09:11:34.997Z,84.86
2023-01-17T09:14:03.718Z,84.74
2023-01-17T09:16:33.418Z,84.77
2023-01-17T09:19:01.616Z,84.55
2023-01-17T09:21:29.687Z,84.31
2023-01-17T09:23:57.581Z,84.33
2023-01-17T09:26:28.885Z,84.31
2023-01-17T09:28:58.726Z,84.17
2023-01-17T09:31:27.169Z,83.65
2023-01-17T09:33:57.102Z,83.98
2023-01-17T09:36:29.297Z,84.33
2023-01-17T09:38:59.117Z,84.48
2023-01-17T09:41:36.324Z,84.44
2023-01-17T09:44:16.511Z,84.08
2023-01-17T09:46:47.856Z,83.93
2023-01-17T09:49:41.704Z,83.52
2023-01-17T09:52:16.551Z,83.73
2023-01-17T09:54:47.863Z,84.07
2023-01-17T09:57:40.767Z,84.29
2023-01-17T10:00:31.480Z,84.49
2023-01-17T10:03:23.933Z,84.48
2023-01-17T10:05:54.672Z,84.46
2023-01-17T10:08:50.658Z,84.67
2023-01-17T10:11:49.288Z,84.79
2023-01-17T10:14:22.637Z,84.24
2023-01-17T10:17:08.755Z,84.39
2023-01-17T10:20:14.212Z,84.52
2023-01-17T10:23:17.843Z,84.44
2023-01-17T10:25:50.605Z,84.43
2023-01-17T10:28:31.176Z,84.23
2023-01-17T10:31:12.968Z,84.20
2023-01-17T10:33:50.133Z,84.02
2023-01-17T10:36:22.586Z,83.78
2023-01-17T10:39:04.576Z,83.30
2023-01-17T10:41:43.725Z,83.36
2023-01-17T10:44:53.912Z,83.00
2023-01-17T10:47:23.899Z,83.00
2023-01-17T10:49:54.341Z,82.51
2023-01-17T10:52:50.782Z,82.60
2023-01-17T10:55:41.926Z,82.50
2023-01-17T10:58:13.505Z,82.65
2023-01-17T11:04:39.128Z,82.42
2023-01-17T11:07:12.647Z,82.39
2023-01-17T11:09:46.570Z,82.38
2023-01-17T11:12:30.030Z,82.38
2023-01-17T11:15:10.153Z,82.51
2023-01-17T11:17:52.934Z,82.62
2023-01-17T11:20:37.142Z,82.57
2023-01-17T11:23:13.251Z,82.29
2023-01-17T11:25:53.042Z,82.27
2023-01-17T11:28:32.663Z,82.15
2023-01-17T11:31:16.599Z,81.94
2023-01-17T11:33:56.910Z,81.85
2023-01-17T11:36:29.056Z,81.48
2023-01-17T11:38:58.556Z,81.47
2023-01-17T11:41:28.293Z,81.35
2023-01-17T11:43:58.583Z,80.67
2023-01-17T11:46:30.480Z,80.24
2023-01-17T11:49:01.157Z,80.48
2023-01-17T11:51:35.257Z,80.30
2023-01-17T11:54:12.278Z,80.01
2023-01-17T11:57:16.694Z,79.90
2023-01-17T11:59:45.354Z,79.02
2023-01-17T12:02:48.419Z,79.84
2023-01-17T12:05:39.251Z,80.10
2023-01-17T12:08:33.031Z,80.18
2023-01-17T12:11:05.650Z,80.43
2023-01-17T12:14:02.861Z,80.52
2023-01-17T12:16:45.065Z,80.18
2023-01-17T12:19:33.563Z,80.52
2023-01-17T12:22:07.859Z,80.56
2023-01-17T12:24:45.642Z,80.47
2023-01-17T12:27:18.008Z,80.74
2023-01-17T12:30:10.809Z,80.56
2023-01-17T12:33:03.696Z,80.10
2023-01-17T12:35:55.693Z,80.58
2023-01-17T12:38:32.871Z,80.70
2023-01-17T12:41:10.317Z,80.62
2023-01-17T12:43:41.604Z,80.81
2023-01-17T12:46:13.250Z,80.73
2023-01-17T12:48:42.263Z,79.89
2023-01-17T12:51:19.173Z,79.99
2023-01-17T12:53:56.512Z,79.67
2023-01-17T12:56:38.512Z,79.24
2023-01-17T12:59:28.137Z,79.23
2023-01-17T13:01:58.933Z,79.17
2023-01-17T13:04:34.417Z,79.75
2023-01-17T13:07:13.286Z,79.47
2023-01-17T13:10:07.563Z,79.26
2023-01-17T13:12:38.545Z,78.63
2023-01-17T13:15:16.922Z,79.06
2023-01-17T13:17:51.223Z,79.23
2023-01-17T13:20:28.845Z,77.58
2023-01-17T13:23:07.906Z,77.79
2023-01-17T13:25:46.191Z,76.73
2023-01-17T13:28:24.679Z,77.47
2023-01-17T13:31:18.586Z,77.81
2023-01-17T13:33:51.235Z,76.56
2023-01-17T13:36:34.213Z,77.12
2023-01-17T13:39:36.462Z,77.42
2023-01-17T13:42:27.981Z,76.55
2023-01-17T13:44:58.091Z,77.07
2023-01-17T13:47:26.209Z,77.32
2023-01-17T13:49:56.624Z,77.45
2023-01-17T13:52:24.623Z,77.37
2023-01-17T13:55:04.491Z,77.31
2023-01-17T13:57:46.317Z,77.31
2023-01-17T14:00:21.734Z,77.29
2023-01-17T14:02:51.488Z,77.18
2023-01-17T14:05:22.154Z,77.14
2023-01-17T14:08:17.996Z,77.21
2023-01-17T14:10:52.624Z,77.26
2023-01-17T14:13:40.168Z,77.21
2023-01-17T14:16:28.159Z,77.25
2023-01-17T14:18:56.468Z,77.43
2023-01-17T14:21:27.485Z,77.41
2023-01-17T14:24:19.663Z,77.45
2023-01-17T14:26:58.004Z,77.61
2023-01-17T14:29:46.648Z,77.74
2023-01-17T14:32:23.367Z,77.82
2023-01-17T14:34:53.397Z,77.89
2023-01-17T14:37:21.301Z,77.85
2023-01-17T14:39:51.060Z,77.98
2023-01-17T14:42:22.622Z,78.03
2023-01-17T14:45:15.316Z,78.23
2023-01-17T14:47:44.696Z,78.49
2023-01-17T14:50:23.516Z,78.75
2023-01-17T14:53:12.891Z,78.90
2023-01-17T14:55:57.020Z,78.84
2023-01-17T14:58:29.618Z,78.95
2023-01-17T15:01:01.688Z,79.21
2023-01-17T15:03:41.742Z,79.42
2023-01-17T15:06:27.767Z,79.78
2023-01-17T15:08:56.102Z,80.09
2023-01-17T15:11:26.599Z,80.44
2023-01-17T15:13:58.208Z,80.64
2023-01-17T15:16:34.125Z,80.78
2023-01-17T15:19:10.619Z,81.01
2023-01-17T15:21:42.992Z,81.19
2023-01-17T15:24:20.245Z,81.38
2023-01-17T15:26:49.218Z,81.65
2023-01-17T15:29:21.397Z,81.86
2023-01-17T15:31:52.664Z,82.01
2023-01-17T15:34:28.257Z,82.18
2023-01-17T15:36:59.592Z,82.25
2023-01-17T15:39:33.643Z,82.36
2023-01-17T15:42:19.553Z,82.49
2023-01-17T15:44:53.328Z,82.62
2023-01-17T15:47:38.939Z,82.82
2023-01-17T15:50:30.860Z,82.84
2023-01-17T15:53:13.296Z,82.95
2023-01-17T15:55:48.141Z,83.07
2023-01-17T15:58:25.253Z,83.24
2023-01-17T16:00:54.107Z,83.50
2023-01-17T16:03:31.091Z,83.68
2023-01-17T16:06:01.127Z,83.90
2023-01-17T16:08:29.236Z,84.19
2023-01-17T16:11:02.218Z,84.33
2023-01-17T16:13:43.282Z,84.48
2023-01-17T16:16:20.574Z,84.44
2023-01-17T16:18:50.945Z,84.62
2023-01-17T16:21:20.902Z,84.77
2023-01-17T16:23:49.333Z,84.84
2023-01-17T16:26:17.545Z,84.74
2023-01-17T16:28:45.987Z,84.73
2023-01-17T16:31:14.141Z,84.71
2023-01-17T16:33:46.107Z,84.82
2023-01-17T16:36:15.122Z,84.82
2023-01-17T16:38:44.855Z,84.63
2023-01-17T16:41:13.007Z,84.62
2023-01-17T16:43:40.878Z,84.52
2023-01-17T16:46:11.525Z,84.52
2023-01-17T16:48:39.534Z,84.61
2023-01-17T16:51:08.395Z,84.90
2023-01-17T16:53:37.506Z,85.21
2023-01-17T16:56:13.663Z,85.42
2023-01-17T16:58:41.696Z,85.60
2023-01-17T17:01:17.304Z,85.65
2023-01-17T17:03:45.275Z,85.62
2023-01-17T17:06:13.709Z,85.60
2023-01-17T17:08:43.151Z,85.62
2023-01-17T17:11:19.071Z,85.61
2023-01-17T17:13:49.165Z,85.64
2023-01-17T17:16:18.897Z,85.56
2023-01-17T17:18:54.455Z,85.10
2023-01-17T17:21:23.340Z,84.68
2023-01-17T17:23:57.067Z,84.45
2023-01-17T17:26:27.442Z,84.52
2023-01-17T17:28:55.469Z,84.56
2023-01-17T17:31:24.143Z,84.66
2023-01-17T17:33:52.114Z,84.86
2023-01-17T17:36:20.057Z,85.22
2023-01-17T17:38:51.167Z,85.52
2023-01-17T17:41:27.457Z,85.71
2023-01-17T17:43:56.128Z,85.96
2023-01-17T17:46:25.586Z,86.26
2023-01-17T17:48:53.893Z,86.70
2023-01-17T17:51:31.789Z,87.08
2023-01-17T17:54:02.978Z,87.65
2023-01-17T17:56:33.048Z,87.70
2023-01-17T17:59:02.027Z,87.76
2023-01-17T18:01:30.658Z,87.85
2023-01-17T18:04:03.197Z,87.89
2023-01-17T18:06:31.050Z,87.91
2023-01-17T18:08:59.047Z,87.95
2023-01-17T18:11:28.606Z,88.04
2023-01-17T18:13:58.667Z,88.00
2023-01-17T18:16:41.829Z,87.93
2023-01-17T18:19:16.679Z,87.83
2023-01-17T18:21:45.058Z,87.77
2023-01-17T18:24:15.357Z,87.75
2023-01-17T18:26:48.612Z,87.74
2023-01-17T18:29:17.977Z,87.72
2023-01-17T18:31:47.274Z,87.74
2023-01-17T18:34:21.168Z,87.71
2023-01-17T18:36:50.003Z,87.72
2023-01-17T18:39:21.279Z,87.85
2023-01-17T18:41:49.600Z,88.03
2023-01-17T18:44:21.836Z,88.16
2023-01-17T18:46:52.714Z,88.29
2023-01-17T18:49:21.247Z,88.34
2023-01-17T18:51:51.278Z,88.35
2023-01-17T18:54:20.637Z,88.38
2023-01-17T18:56:48.625Z,88.48
2023-01-17T18:59:18.662Z,88.55
2023-01-17T19:04:37.811Z,88.56
2023-01-17T19:07:05.846Z,88.71
2023-01-17T19:09:34.036Z,88.89
2023-01-17T19:12:11.186Z,89.03
2023-01-17T19:14:39.153Z,89.08
2023-01-17T19:17:07.238Z,89.15
2023-01-17T19:19:35.207Z,89.20
2023-01-17T19:22:04.183Z,89.30
2023-01-17T19:24:32.157Z,89.41
2023-01-17T19:27:00.152Z,89.55
2023-01-17T19:29:29.037Z,89.63
2023-01-17T19:31:57.065Z,89.70
2023-01-17T19:34:25.190Z,89.77
2023-01-17T19:36:55.111Z,89.87
2023-01-17T19:39:25.577Z,89.94
2023-01-17T19:41:53.599Z,90.02
2023-01-17T19:44:21.777Z,90.08
2023-01-17T19:46:49.689Z,90.16
2023-01-17T19:49:23.840Z,90.21
2023-01-17T19:51:52.235Z,90.25
2023-01-17T19:54:20.299Z,90.25
2023-01-17T19:56:48.506Z,90.23
2023-01-17T19:59:16.689Z,90.20
2023-01-17T20:01:44.687Z,90.20
2023-01-17T20:04:12.962Z,90.20
2023-01-17T20:06:40.850Z,90.21
2023-01-17T20:09:08.797Z,90.22
2023-01-17T20:11:37.181Z,90.24
2023-01-17T20:14:07.706Z,90.24
2023-01-17T20:16:37.180Z,90.17
2023-01-17T20:19:05.629Z,90.01
2023-01-17T20:21:34.415Z,89.78
2023-01-17T20:24:05.853Z,89.55
2023-01-17T20:26:35.564Z,89.34
2023-01-17T20:29:17.681Z,89.17
2023-01-17T20:31:46.187Z,89.00
2023-01-17T20:34:16.265Z,88.94
2023-01-17T20:36:44.778Z,88.98
2023-01-17T20:39:14.848Z,89.06
2023-01-17T20:41:44.711Z,89.13
2023-01-17T20:44:15.482Z,89.20
2023-01-17T20:46:43.882Z,89.28
2023-01-17T20:49:15.255Z,89.34
2023-01-17T20:51:45.441Z,89.39
2023-01-17T20:54:15.892Z,89.46
2023-01-17T20:56:46.799Z,89.54
2023-01-17T20:59:34.262Z,89.61
2023-01-17T21:02:05.165Z,89.69
2023-01-17T21:04:33.141Z,89.74
2023-01-17T21:07:01.113Z,89.80
2023-01-17T21:09:29.357Z,89.88
2023-01-17T21:12:01.265Z,89.94
2023-01-17T21:14:29.194Z,89.93
2023-01-17T21:16:57.268Z,89.86
2023-01-17T21:19:25.262Z,89.86
2023-01-17T21:21:53.331Z,89.91
2023-01-17T21:24:21.264Z,89.95
2023-01-17T21:26:51.504Z,90.00
2023-01-17T21:29:19.569Z,90.04
2023-01-17T21:31:47.582Z,90.10
2023-01-17T21:34:15.533Z,90.19
2023-01-17T21:36:43.838Z,90.26
2023-01-17T21:39:16.033Z,90.30
2023-01-17T21:41:47.926Z,90.32
2023-01-17T21:44:19.533Z,90.35
2023-01-17T21:46:48.525Z,90.36
2023-01-17T21:49:17.628Z,90.35
2023-01-17T21:51:53.503Z,90.31
2023-01-17T21:54:46.301Z,90.29
2023-01-17T21:57:41.086Z,90.36
2023-01-17T22:00:16.025Z,90.41
2023-01-17T22:02:45.312Z,90.48
2023-01-17T22:05:14.010Z,90.55
2023-01-17T22:08:04.423Z,90.58
2023-01-17T22:10:44.573Z,90.64
2023-01-17T22:13:17.949Z,90.72
2023-01-17T22:15:46.212Z,90.73
2023-01-17T22:18:15.815Z,90.79
2023-01-17T22:20:43.760Z,90.87
2023-01-17T22:23:11.986Z,90.92
2023-01-17T22:25:41.379Z,90.98
2023-01-17T22:28:10.298Z,91.05
2023-01-17T22:30:39.226Z,91.09
2023-01-17T22:33:07.146Z,91.14
2023-01-17T22:35:35.927Z,91.16
2023-01-17T22:38:04.816Z,91.19
2023-01-17T22:40:36.142Z,91.20
2023-01-17T22:43:06.114Z,91.20
2023-01-17T22:45:35.238Z,91.17
2023-01-17T22:48:03.271Z,91.16
2023-01-17T22:50:31.097Z,91.13
2023-01-17T22:52:59.236Z,91.15
2023-01-17T22:55:28.190Z,91.17
2023-01-17T22:57:56.958Z,91.18
2023-01-17T23:00:25.840Z,91.21
2023-01-17T23:02:53.780Z,91.24
2023-01-17T23:05:22.909Z,91.25
2023-01-17T23:07:51.309Z,91.26
2023-01-17T23:10:39.994Z,91.27
2023-01-17T23:13:11.010Z,91.29
2023-01-17T23:15:58.672Z,91.31
2023-01-17T23:18:45.340Z,91.34
2023-01-17T23:21:13.151Z,91.36
2023-01-17T23:23:42.068Z,91.39
2023-01-17T23:26:10.097Z,91.42
2023-01-17T23:28:41.413Z,91.43
2023-01-17T23:31:12.689Z,91.48
2023-01-17T23:33:41.977Z,91.52
2023-01-17T23:36:10.042Z,91.56
2023-01-17T23:38:44.074Z,91.58
2023-01-17T23:41:30.807Z,91.62
2023-01-17T23:43:59.191Z,91.63
2023-01-17T23:46:30.567Z,91.62
2023-01-17T23:48:59.687Z,91.66
2023-01-17T23:51:29.923Z,91.69
2023-01-17T23:54:05.551Z,91.70
2023-01-17T23:56:33.551Z,91.72
2023-01-17T23:59:01.579Z,91.73
